createdAt,value
2022-08-10T00:00:46.494Z,66.76
2022-08-10T00:03:14.053Z,66.95
2022-08-10T00:05:43.382Z,67.07
2022-08-10T00:08:22.762Z,66.76
2022-08-10T00:10:56.041Z,66.64
2022-08-10T00:13:24.961Z,66.80
2022-08-10T00:15:55.172Z,66.76
2022-08-10T00:18:35.196Z,66.93
2022-08-10T00:21:08.467Z,67.36
2022-08-10T00:23:38.261Z,67.37
2022-08-10T00:26:07.474Z,67.64
2022-08-10T00:28:35.002Z,67.99
2022-08-10T00:31:02.625Z,67.95
2022-08-10T00:33:30.117Z,68.24
2022-08-10T00:35:57.645Z,68.40
2022-08-10T00:38:25.174Z,68.54
2022-08-10T00:40:52.709Z,68.68
2022-08-10T00:43:23.460Z,68.52
2022-08-10T00:45:58.904Z,68.90
2022-08-10T00:48:29.948Z,69.04
2022-08-10T00:50:59.691Z,69.27
2022-08-10T00:53:29.158Z,69.37
2022-08-10T00:56:38.407Z,69.52
2022-08-10T00:58:46.879Z,69.74
2022-08-10T01:02:10.097Z,69.49
2022-08-10T01:04:58.531Z,69.36
2022-08-10T01:07:04.492Z,69.65
2022-08-10T01:10:02.939Z,69.52
2022-08-10T01:12:47.062Z,69.58
2022-08-10T01:15:28.062Z,69.69
2022-08-10T01:18:37.184Z,69.46
2022-08-10T01:21:23.801Z,69.42
2022-08-10T01:24:06.564Z,69.42
2022-08-10T01:26:50.317Z,69.53
2022-08-10T01:29:48.647Z,69.61
2022-08-10T01:32:25.067Z,69.46
2022-08-10T01:35:10.345Z,69.37
2022-08-10T01:37:44.477Z,69.63
2022-08-10T01:40:25.699Z,69.48
2022-08-10T01:42:55.437Z,69.34
2022-08-10T01:45:29.098Z,69.24
2022-08-10T01:48:31.095Z,69.47
2022-08-10T01:51:05.724Z,69.32
2022-08-10T01:53:41.248Z,69.31
2022-08-10T01:56:11.789Z,69.28
2022-08-10T01:58:40.531Z,69.53
2022-08-10T02:01:16.897Z,69.70
2022-08-10T02:04:05.331Z,69.75
2022-08-10T02:06:38.340Z,69.94
2022-08-10T02:09:08.146Z,69.93
2022-08-10T02:12:06.794Z,70.27
2022-08-10T02:14:33.278Z,70.41
2022-08-10T02:17:05.783Z,70.70
2022-08-10T02:19:36.419Z,70.82
2022-08-10T02:22:15.447Z,70.95
2022-08-10T02:24:53.756Z,71.16
2022-08-10T02:27:24.545Z,71.37
2022-08-10T02:29:53.692Z,71.71
2022-08-10T02:32:36.467Z,71.60
2022-08-10T02:35:18.628Z,71.91
2022-08-10T02:37:52.289Z,71.92
2022-08-10T02:42:18.085Z,72.25
2022-08-10T02:45:18.928Z,72.51
2022-08-10T02:46:42.749Z,72.65
2022-08-10T02:49:19.114Z,72.79
2022-08-10T02:52:06.585Z,72.92
2022-08-10T02:54:40.227Z,73.15
2022-08-10T02:57:15.309Z,73.46
2022-08-10T02:59:47.325Z,73.59
2022-08-10T03:02:26.560Z,73.54
2022-08-10T03:04:58.475Z,73.68
2022-08-10T03:07:42.858Z,73.88
2022-08-10T03:10:17.051Z,73.89
2022-08-10T03:12:45.382Z,74.42
2022-08-10T03:15:15.689Z,74.52
2022-08-10T03:17:58.299Z,74.70
2022-08-10T03:20:47.054Z,74.76
2022-08-10T03:23:17.707Z,75.05
2022-08-10T03:25:54.006Z,74.93
2022-08-10T03:28:30.562Z,75.00
2022-08-10T03:31:00.248Z,75.42
2022-08-10T03:33:40.504Z,75.73
2022-08-10T03:36:39.972Z,75.96
2022-08-10T03:38:56.538Z,76.21
2022-08-10T03:41:30.521Z,76.35
2022-08-10T03:44:05.620Z,76.59
2022-08-10T03:46:35.978Z,76.77
2022-08-10T03:49:06.947Z,76.69
2022-08-10T03:51:35.883Z,77.33
2022-08-10T03:54:07.328Z,77.25
2022-08-10T03:56:40.910Z,77.71
2022-08-10T03:59:14.212Z,77.68
2022-08-10T04:02:44.576Z,77.58
2022-08-10T04:04:34.726Z,77.96
2022-08-10T04:07:03.988Z,78.32
2022-08-10T04:09:54.664Z,78.39
2022-08-10T04:12:22.023Z,78.17
2022-08-10T04:14:52.779Z,78.70
2022-08-10T04:17:56.846Z,78.98
2022-08-10T04:20:34.960Z,79.29
2022-08-10T04:23:07.631Z,79.13
2022-08-10T04:25:35.854Z,79.42
2022-08-10T04:28:03.737Z,79.71
2022-08-10T04:30:33.358Z,79.47
2022-08-10T04:33:03.328Z,79.69
2022-08-10T04:35:33.023Z,79.77
2022-08-10T04:38:01.579Z,80.10
2022-08-10T04:40:31.083Z,80.25
2022-08-10T04:43:12.417Z,80.18
2022-08-10T04:45:48.433Z,80.41
2022-08-10T04:48:40.393Z,80.37
2022-08-10T04:51:10.825Z,80.19
2022-08-10T04:54:04.441Z,80.44
2022-08-10T04:56:31.803Z,80.58
2022-08-10T04:59:00.942Z,80.70
2022-08-10T05:02:22.689Z,80.49
2022-08-10T05:04:38.179Z,80.65
2022-08-10T05:07:04.217Z,80.76
2022-08-10T05:09:31.673Z,80.88
2022-08-10T05:11:59.158Z,80.74
2022-08-10T05:14:26.670Z,80.75
2022-08-10T05:16:54.155Z,80.69
2022-08-10T05:20:01.377Z,80.71
2022-08-10T05:22:09.230Z,80.36
2022-08-10T05:24:36.726Z,80.40
2022-08-10T05:27:09.903Z,80.50
2022-08-10T05:29:38.225Z,80.08
2022-08-10T05:32:06.342Z,79.96
2022-08-10T05:34:33.891Z,79.83
2022-08-10T05:37:01.590Z,79.37
2022-08-10T05:39:30.462Z,79.09
2022-08-10T05:42:00.937Z,78.76
2022-08-10T05:44:30.218Z,78.67
2022-08-10T05:46:58.068Z,78.46
2022-08-10T05:49:25.827Z,78.13
2022-08-10T05:51:53.391Z,78.01
2022-08-10T05:54:21.241Z,77.78
2022-08-10T05:56:54.235Z,77.43
2022-08-10T06:00:33.082Z,77.10
2022-08-10T06:02:37.437Z,76.52
2022-08-10T06:05:09.241Z,76.44
2022-08-10T06:07:46.100Z,76.31
2022-08-10T06:10:31.703Z,75.75
2022-08-10T06:13:34.286Z,75.02
2022-08-10T06:16:06.567Z,74.64
2022-08-10T06:18:34.510Z,74.07
2022-08-10T06:21:03.051Z,73.42
2022-08-10T06:23:32.526Z,72.98
2022-08-10T06:26:11.039Z,72.40
2022-08-10T06:28:54.009Z,71.59
2022-08-10T06:31:48.113Z,71.04
2022-08-10T06:34:21.359Z,70.39
2022-08-10T06:36:50.025Z,69.90
2022-08-10T06:39:32.812Z,69.57
2022-08-10T06:42:16.719Z,69.25
2022-08-10T06:45:13.357Z,68.75
2022-08-10T06:47:55.070Z,68.36
2022-08-10T06:50:45.320Z,66.75
2022-08-10T06:53:18.707Z,66.45
2022-08-10T06:56:10.104Z,65.47
2022-08-10T06:58:42.039Z,65.37
2022-08-10T07:01:15.508Z,65.00
2022-08-10T07:03:54.874Z,64.84
2022-08-10T07:06:23.124Z,64.44
2022-08-10T07:08:52.933Z,63.72
2022-08-10T07:11:23.021Z,63.36
2022-08-10T07:14:17.161Z,62.98
2022-08-10T07:16:45.617Z,62.28
2022-08-10T07:19:14.744Z,62.01
2022-08-10T07:21:45.451Z,61.66
2022-08-10T07:24:15.138Z,61.36
2022-08-10T07:26:48.894Z,60.58
2022-08-10T07:29:52.673Z,60.13
2022-08-10T07:32:09.269Z,59.39
2022-08-10T07:34:37.395Z,58.83
2022-08-10T07:37:08.578Z,58.81
2022-08-10T07:40:01.918Z,58.28
2022-08-10T07:42:31.842Z,57.81
2022-08-10T07:44:59.598Z,57.23
2022-08-10T07:47:53.116Z,57.40
2022-08-10T07:50:24.351Z,56.82
2022-08-10T07:52:54.410Z,55.69
2022-08-10T07:56:04.215Z,55.94
2022-08-10T07:58:12.366Z,55.45
2022-08-10T08:00:40.810Z,54.45
2022-08-10T08:03:10.787Z,53.63
2022-08-10T08:06:02.634Z,53.46
2022-08-10T08:08:28.820Z,53.12
2022-08-10T08:10:56.834Z,53.63
2022-08-10T08:13:26.019Z,52.78
2022-08-10T08:16:19.717Z,52.08
2022-08-10T08:18:50.949Z,51.74
2022-08-10T08:24:07.958Z,50.95
2022-08-10T08:24:31.629Z,50.09
2022-08-10T08:27:01.789Z,50.40
2022-08-10T08:29:30.509Z,50.63
2022-08-10T08:32:01.943Z,50.44
2022-08-10T08:34:31.484Z,49.41
2022-08-10T08:37:01.227Z,49.70
2022-08-10T08:39:29.803Z,49.08
2022-08-10T08:42:16.350Z,47.53
2022-08-10T08:45:11.473Z,47.46
2022-08-10T08:48:16.423Z,48.02
2022-08-10T08:51:02.157Z,47.87
2022-08-10T08:54:00.896Z,45.76
2022-08-10T08:56:49.971Z,44.95
2022-08-10T08:59:29.944Z,45.37
2022-08-10T09:02:16.127Z,44.22
2022-08-10T09:05:59.966Z,43.62
2022-08-10T09:08:52.668Z,42.19
2022-08-10T09:11:20.087Z,41.88
2022-08-10T09:14:02.801Z,40.87
2022-08-10T09:16:57.573Z,40.10
2022-08-10T09:19:40.148Z,39.90
2022-08-10T09:22:18.707Z,39.84
2022-08-10T09:25:13.563Z,40.85
2022-08-10T09:27:50.218Z,40.54
2022-08-10T09:30:33.079Z,39.01
2022-08-10T09:36:21.773Z,37.14
2022-08-10T09:36:25.987Z,38.51
2022-08-10T09:39:08.909Z,38.69
2022-08-10T09:41:39.150Z,39.39
2022-08-10T09:44:27.373Z,37.05
2022-08-10T09:47:58.566Z,36.36
2022-08-10T09:50:24.091Z,38.13
2022-08-10T09:53:05.139Z,37.59
2022-08-10T09:56:17.667Z,36.91
2022-08-10T09:58:51.288Z,37.23
2022-08-10T10:02:02.998Z,36.07
2022-08-10T10:04:52.285Z,35.04
2022-08-10T10:07:43.463Z,34.85
2022-08-10T10:10:33.829Z,33.81
2022-08-10T10:13:10.218Z,33.67
2022-08-10T10:16:04.495Z,34.62
2022-08-10T10:18:37.563Z,32.83
2022-08-10T10:21:08.471Z,31.77
2022-08-10T10:24:20.444Z,32.37
2022-08-10T10:27:33.840Z,31.26
2022-08-10T10:30:15.348Z,31.54
2022-08-10T10:32:59.462Z,31.29
2022-08-10T10:35:38.778Z,31.59
2022-08-10T10:38:11.201Z,31.72
2022-08-10T10:40:46.721Z,32.50
2022-08-10T10:43:33.756Z,30.82
2022-08-10T10:46:23.025Z,31.81
2022-08-10T10:49:04.571Z,31.89
2022-08-10T10:51:44.312Z,31.73
2022-08-10T10:54:20.427Z,32.88
2022-08-10T10:57:23.709Z,32.64
2022-08-10T11:00:13.481Z,30.44
2022-08-10T11:03:04.988Z,31.55
2022-08-10T11:05:50.791Z,30.61
2022-08-10T11:08:29.199Z,30.31
2022-08-10T11:11:05.377Z,30.26
2022-08-10T11:14:24.650Z,29.12
2022-08-10T11:16:54.423Z,28.71
2022-08-10T11:20:02.532Z,30.13
2022-08-10T11:22:43.056Z,27.97
2022-08-10T11:25:39.670Z,29.01
2022-08-10T11:28:41.685Z,27.39
2022-08-10T11:31:20.842Z,28.79
2022-08-10T11:34:48.607Z,28.34
2022-08-10T11:37:23.162Z,27.18
2022-08-10T11:40:15.329Z,28.99
2022-08-10T11:42:55.702Z,28.95
2022-08-10T11:45:29.998Z,26.75
2022-08-10T11:48:07.809Z,26.58
2022-08-10T11:50:44.525Z,26.56
2022-08-10T11:53:22.814Z,26.40
2022-08-10T11:55:56.957Z,28.35
2022-08-10T11:58:47.321Z,27.71
2022-08-10T12:01:18.861Z,25.73
2022-08-10T12:03:48.613Z,24.98
2022-08-10T12:06:39.169Z,23.87
2022-08-10T12:10:11.121Z,24.23
2022-08-10T12:12:00.301Z,23.70
2022-08-10T12:14:42.037Z,22.44
2022-08-10T12:17:16.905Z,22.19
2022-08-10T12:19:59.302Z,21.58
2022-08-10T12:22:48.671Z,22.94
2022-08-10T12:25:57.563Z,23.59
2022-08-10T12:28:51.204Z,23.23
2022-08-10T12:31:14.427Z,22.40
2022-08-10T12:34:02.672Z,21.45
2022-08-10T12:36:40.862Z,20.90
2022-08-10T12:39:21.588Z,21.71
2022-08-10T12:42:04.487Z,22.88
2022-08-10T12:44:41.610Z,22.59
2022-08-10T12:47:18.777Z,21.80
2022-08-10T12:50:32.902Z,20.84
2022-08-10T12:53:34.275Z,21.06
2022-08-10T12:56:03.506Z,20.93
2022-08-10T12:59:00.151Z,20.10
2022-08-10T13:01:20.907Z,19.40
2022-08-10T13:04:21.232Z,19.17
2022-08-10T13:06:46.171Z,19.63
2022-08-10T13:09:23.225Z,19.65
2022-08-10T13:12:35.318Z,21.93
2022-08-10T13:14:51.161Z,21.62
2022-08-10T13:17:39.233Z,20.66
2022-08-10T13:20:17.295Z,19.18
2022-08-10T13:22:48.421Z,20.49
2022-08-10T13:25:19.197Z,19.39
2022-08-10T13:28:00.863Z,18.53
2022-08-10T13:30:37.343Z,20.01
2022-08-10T13:33:08.294Z,20.47
2022-08-10T13:35:37.976Z,21.29
2022-08-10T13:38:08.165Z,20.40
2022-08-10T13:40:37.114Z,19.83
2022-08-10T13:43:08.501Z,20.32
2022-08-10T13:45:46.276Z,18.77
2022-08-10T13:48:22.357Z,19.26
2022-08-10T13:50:58.919Z,19.29
2022-08-10T13:53:31.938Z,19.92
2022-08-10T13:56:00.746Z,19.23
2022-08-10T13:58:34.998Z,20.32
2022-08-10T14:01:10.940Z,19.99
2022-08-10T14:03:41.023Z,19.67
2022-08-10T14:06:13.341Z,20.11
2022-08-10T14:08:46.647Z,20.40
2022-08-10T14:11:17.853Z,20.33
2022-08-10T14:13:53.030Z,21.15
2022-08-10T14:16:21.656Z,21.49
2022-08-10T14:18:52.348Z,21.50
2022-08-10T14:21:20.648Z,21.03
2022-08-10T14:23:53.205Z,20.58
2022-08-10T14:26:26.994Z,22.35
2022-08-10T14:28:58.194Z,23.31
2022-08-10T14:31:30.023Z,25.16
2022-08-10T14:34:00.468Z,25.23
2022-08-10T14:36:39.062Z,26.05
2022-08-10T14:39:08.523Z,25.90
2022-08-10T14:42:00.869Z,25.88
2022-08-10T14:44:30.990Z,26.09
2022-08-10T14:47:52.367Z,26.50
2022-08-10T14:49:58.230Z,26.71
2022-08-10T14:52:27.973Z,26.74
2022-08-10T14:54:58.009Z,27.19
2022-08-10T14:58:20.123Z,26.65
2022-08-10T15:00:30.843Z,26.76
2022-08-10T15:03:04.372Z,27.31
2022-08-10T15:05:45.443Z,26.93
2022-08-10T15:08:14.943Z,26.86
2022-08-10T15:10:51.085Z,27.61
2022-08-10T15:13:33.857Z,27.33
2022-08-10T15:16:13.888Z,27.13
2022-08-10T15:18:57.541Z,27.86
2022-08-10T15:21:40.721Z,27.63
2022-08-10T15:24:16.143Z,27.28
2022-08-10T15:26:57.591Z,27.47
2022-08-10T15:29:27.240Z,27.53
2022-08-10T15:32:12.346Z,26.69
2022-08-10T15:34:58.164Z,27.19
2022-08-10T15:37:47.098Z,27.92
2022-08-10T15:40:24.617Z,27.71
2022-08-10T15:43:24.900Z,27.59
2022-08-10T15:46:29.732Z,28.27
2022-08-10T15:49:02.164Z,27.86
2022-08-10T15:51:54.361Z,28.26
2022-08-10T15:54:33.578Z,28.31
2022-08-10T15:57:10.554Z,28.51
2022-08-10T15:59:56.598Z,28.30
2022-08-10T16:02:28.146Z,27.90
2022-08-10T16:04:58.364Z,28.00
2022-08-10T16:07:45.851Z,28.33
2022-08-10T16:10:27.616Z,28.16
2022-08-10T16:13:02.274Z,28.58
2022-08-10T16:15:59.336Z,28.59
2022-08-10T16:18:29.343Z,28.86
2022-08-10T16:21:02.165Z,28.85
2022-08-10T16:23:34.859Z,28.84
2022-08-10T16:26:14.488Z,28.27
2022-08-10T16:28:50.976Z,28.66
2022-08-10T16:31:24.896Z,28.20
2022-08-10T16:33:55.489Z,28.35
2022-08-10T16:36:50.014Z,28.19
2022-08-10T16:39:57.920Z,28.56
2022-08-10T16:42:17.567Z,28.71
2022-08-10T16:44:53.446Z,28.75
2022-08-10T16:47:27.493Z,29.11
2022-08-10T16:49:59.317Z,29.38
2022-08-10T16:52:29.444Z,29.07
2022-08-10T16:55:47.549Z,29.05
2022-08-10T16:58:09.211Z,29.05
2022-08-10T17:00:38.661Z,29.02
2022-08-10T17:04:04.661Z,29.27
2022-08-10T17:06:09.631Z,29.98
2022-08-10T17:08:48.127Z,30.50
2022-08-10T17:11:18.167Z,29.08
2022-08-10T17:13:46.337Z,29.95
2022-08-10T17:16:16.937Z,30.16
2022-08-10T17:18:47.902Z,30.03
2022-08-10T17:21:23.480Z,30.89
2022-08-10T17:23:54.374Z,31.52
2022-08-10T17:26:37.080Z,30.92
2022-08-10T17:29:58.613Z,31.10
2022-08-10T17:32:17.869Z,31.38
2022-08-10T17:34:53.899Z,31.69
2022-08-10T17:37:24.461Z,31.81
2022-08-10T17:40:00.593Z,32.15
2022-08-10T17:42:28.476Z,33.82
2022-08-10T17:44:57.573Z,34.81
2022-08-10T17:47:27.621Z,35.50
2022-08-10T17:49:59.705Z,36.02
2022-08-10T17:52:31.598Z,36.55
2022-08-10T17:55:04.666Z,36.63
2022-08-10T17:57:37.946Z,37.16
2022-08-10T18:00:09.884Z,37.67
2022-08-10T18:02:40.081Z,37.62
2022-08-10T18:05:10.271Z,38.17
2022-08-10T18:07:46.567Z,38.59
2022-08-10T18:10:19.603Z,38.20
2022-08-10T18:12:49.923Z,37.98
2022-08-10T18:15:22.071Z,38.24
2022-08-10T18:18:02.247Z,38.59
2022-08-10T18:20:38.216Z,38.87
2022-08-10T18:23:07.827Z,38.81
2022-08-10T18:25:39.466Z,38.85
2022-08-10T18:28:12.168Z,38.89
2022-08-10T18:30:50.533Z,39.46
2022-08-10T18:33:19.885Z,39.49
2022-08-10T18:35:49.067Z,39.78
2022-08-10T18:38:18.676Z,39.90
2022-08-10T18:41:00.285Z,39.79
2022-08-10T18:44:07.177Z,39.83
2022-08-10T18:46:28.152Z,40.82
2022-08-10T18:49:13.221Z,40.94
2022-08-10T18:51:46.812Z,41.21
2022-08-10T18:54:39.819Z,41.54
2022-08-10T18:57:59.082Z,42.15
2022-08-10T19:01:01.754Z,42.83
2022-08-10T19:03:38.347Z,43.07
2022-08-10T19:06:49.165Z,43.43
2022-08-10T19:09:47.779Z,43.85
2022-08-10T19:12:30.154Z,44.77
2022-08-10T19:15:05.998Z,45.14
2022-08-10T19:18:03.319Z,45.38
2022-08-10T19:20:40.369Z,45.76
2022-08-10T19:23:29.962Z,46.17
2022-08-10T19:26:44.621Z,46.41
2022-08-10T19:30:10.142Z,46.67
2022-08-10T19:32:33.028Z,47.22
2022-08-10T19:35:35.233Z,47.51
2022-08-10T19:38:49.591Z,47.84
2022-08-10T19:41:42.194Z,48.52
2022-08-10T19:44:18.869Z,48.59
2022-08-10T19:47:08.846Z,48.95
2022-08-10T19:49:52.301Z,49.45
2022-08-10T19:52:38.472Z,50.02
2022-08-10T19:55:30.628Z,50.20
2022-08-10T19:58:04.139Z,50.68
2022-08-10T20:01:02.200Z,51.16
2022-08-10T20:03:49.279Z,51.47
2022-08-10T20:06:32.830Z,51.54
2022-08-10T20:09:02.499Z,52.35
2022-08-10T20:11:56.011Z,52.62
2022-08-10T20:14:48.155Z,52.84
2022-08-10T20:17:50.985Z,53.16
2022-08-10T20:20:31.267Z,53.48
2022-08-10T20:23:15.545Z,53.96
2022-08-10T20:26:02.080Z,54.45
2022-08-10T20:28:32.744Z,54.98
2022-08-10T20:31:11.533Z,54.87
2022-08-10T20:34:01.766Z,55.10
2022-08-10T20:36:36.727Z,55.00
2022-08-10T20:39:14.540Z,55.41
2022-08-10T20:41:58.431Z,55.76
2022-08-10T20:44:25.931Z,55.67
2022-08-10T20:47:19.047Z,55.76
2022-08-10T20:50:16.847Z,56.03
2022-08-10T20:52:48.883Z,56.00
2022-08-10T20:55:17.417Z,56.02
2022-08-10T20:58:03.302Z,55.92
2022-08-10T21:00:47.502Z,56.16
2022-08-10T21:03:31.925Z,56.12
2022-08-10T21:06:00.815Z,56.39
2022-08-10T21:08:53.091Z,56.19
2022-08-10T21:11:23.294Z,56.62
2022-08-10T21:14:28.334Z,56.87
2022-08-10T21:17:06.317Z,56.99
2022-08-10T21:20:15.640Z,57.09
2022-08-10T21:22:45.761Z,56.85
2022-08-10T21:25:20.458Z,56.52
2022-08-10T21:27:58.991Z,56.55
2022-08-10T21:30:25.338Z,56.35
2022-08-10T21:33:06.482Z,56.23
2022-08-10T21:35:48.579Z,56.31
2022-08-10T21:38:23.923Z,56.21
2022-08-10T21:41:17.833Z,56.07
2022-08-10T21:44:39.868Z,56.40
2022-08-10T21:48:07.466Z,56.44
2022-08-10T21:51:05.755Z,56.45
2022-08-10T21:53:57.216Z,56.71
2022-08-10T21:57:12.040Z,56.89
2022-08-10T22:00:02.804Z,57.15
2022-08-10T22:02:52.655Z,57.50
2022-08-10T22:05:47.643Z,57.50
2022-08-10T22:08:36.876Z,57.63
2022-08-10T22:11:24.742Z,57.65
2022-08-10T22:14:10.407Z,57.76
2022-08-10T22:17:59.381Z,57.94
2022-08-10T22:20:43.741Z,58.34
2022-08-10T22:23:40.868Z,58.48
2022-08-10T22:27:01.121Z,58.91
2022-08-10T22:29:56.387Z,59.21
2022-08-10T22:32:53.539Z,59.23
2022-08-10T22:36:15.509Z,59.83
2022-08-10T22:39:11.382Z,60.29
2022-08-10T22:42:08.661Z,60.68
2022-08-10T22:45:00.111Z,61.05
2022-08-10T22:47:48.799Z,61.25
2022-08-10T22:50:20.676Z,61.63
2022-08-10T22:53:02.024Z,61.82
2022-08-10T22:55:54.368Z,62.52
2022-08-10T22:58:40.667Z,62.60
2022-08-10T23:01:39.063Z,62.85
2022-08-10T23:04:23.623Z,63.59
2022-08-10T23:07:09.183Z,63.92
2022-08-10T23:09:42.115Z,63.97
2022-08-10T23:12:36.499Z,64.43
2022-08-10T23:15:24.159Z,64.83
2022-08-10T23:18:14.370Z,65.12
2022-08-10T23:20:44.553Z,65.40
2022-08-10T23:23:24.082Z,65.80
2022-08-10T23:25:57.483Z,66.07
2022-08-10T23:28:58.565Z,66.18
2022-08-10T23:31:17.729Z,66.15
2022-08-10T23:34:07.342Z,66.28
2022-08-10T23:36:38.293Z,66.30
2022-08-10T23:39:26.933Z,66.57
2022-08-10T23:42:04.714Z,66.69
2022-08-10T23:44:47.293Z,67.01
2022-08-10T23:47:26.693Z,67.33
2022-08-10T23:49:57.734Z,67.32
2022-08-10T23:52:33.059Z,67.10
2022-08-10T23:55:05.934Z,67.26
2022-08-10T23:57:36.039Z,67.03
